Time;durP1;ratioP1;P1;durP2;ratioP2;P2;SDS_P1;SDS_P2;PMS_P1;PMS_P2;Temp;Humidity;BMP_temperature;BMP_pressure;BME280_temperature;BME280_humidity;BME280_pressure;Samples;Min_cycle;Max_cycle;Signal;HPM_P1;HPM_P2
2021/04/18 00:08:03;;;;;;;62.1;42.3;;;;;;;4.83;100;98890.35;;;;
2021/04/18 00:18:01;;;;;;;52.2;46.6;;;;;;;4.84;100;98899.17;;;;
2021/04/18 00:27:59;;;;;;;54.4;48.6;;;;;;;4.87;100;98896.78;;;;
2021/04/18 00:37:58;;;;;;;60.6;44.2;;;;;;;4.85;100;98892.77;;;;
2021/04/18 00:47:56;;;;;;;56.4;41.3;;;;;;;4.78;100;98893.02;;;;
2021/04/18 00:57:54;;;;;;;42.6;34.8;;;;;;;4.78;100;98890.35;;;;
2021/04/18 01:07:52;;;;;;;53.9;37.3;;;;;;;4.82;100;98888.77;;;;
2021/04/18 01:17:51;;;;;;;55;39.7;;;;;;;4.84;100;98883.95;;;;
2021/04/18 01:27:49;;;;;;;40.7;33.9;;;;;;;4.75;100;98874.05;;;;
2021/04/18 01:37:47;;;;;;;39.7;32.3;;;;;;;4.82;100;98885.29;;;;
2021/04/18 01:47:45;;;;;;;41.5;32.2;;;;;;;4.78;100;98879.67;;;;
2021/04/18 01:57:44;;;;;;;39.7;32.6;;;;;;;4.64;100;98878.55;;;;
2021/04/18 02:07:42;;;;;;;41.9;32.6;;;;;;;4.72;100;98880.7;;;;
2021/04/18 02:17:40;;;;;;;49.1;38.7;;;;;;;4.66;100;98873.74;;;;
2021/04/18 02:27:38;;;;;;;64;40.2;;;;;;;4.72;100;98864.67;;;;
2021/04/18 02:37:37;;;;;;;83.5;60.2;;;;;;;4.56;100;98871.04;;;;
2021/04/18 02:47:35;;;;;;;75.4;55.9;;;;;;;4.52;100;98857.41;;;;
2021/04/18 02:57:34;;;;;;;65.4;53;;;;;;;4.49;100;98849.94;;;;
2021/04/18 03:07:34;;;;;;;67.9;55.1;;;;;;;4.47;100;98848.59;;;;
2021/04/18 03:17:30;;;;;;;67.9;55.6;;;;;;;4.48;100;98829.64;;;;
2021/04/18 03:27:28;;;;;;;74.9;55.2;;;;;;;4.45;100;98827.5;;;;
2021/04/18 03:37:26;;;;;;;66.7;49.5;;;;;;;4.45;100;98827.5;;;;
2021/04/18 03:47:24;;;;;;;67.1;51.6;;;;;;;4.49;100;98830.45;;;;
2021/04/18 03:57:23;;;;;;;66.8;49.1;;;;;;;4.51;100;98834.45;;;;
2021/04/18 04:07:21;;;;;;;72.5;49;;;;;;;4.56;100;98829.14;;;;
2021/04/18 04:17:19;;;;;;;76.8;55.2;;;;;;;4.65;100;98837.42;;;;
2021/04/18 04:27:18;;;;;;;66.2;49.5;;;;;;;4.74;100;98835.87;;;;
2021/04/18 04:37:15;;;;;;;66.9;49.3;;;;;;;4.65;100;98848.1;;;;
2021/04/18 04:47:13;;;;;;;62.4;50.7;;;;;;;4.84;100;98838.56;;;;
2021/04/18 04:57:12;;;;;;;59.7;45.6;;;;;;;4.93;100;98828.95;;;;
2021/04/18 05:07:10;;;;;;;51.7;41.9;;;;;;;4.92;100;98832.71;;;;
2021/04/18 05:17:08;;;;;;;47.9;36.7;;;;;;;5.25;100;98838.61;;;;
2021/04/18 05:27:07;;;;;;;47.4;36.5;;;;;;;5.42;100;98836.47;;;;
2021/04/18 05:37:05;;;;;;;49;39.8;;;;;;;5.4;100;98849.31;;;;
2021/04/18 05:47:03;;;;;;;44.9;36.2;;;;;;;5.49;100;98845.02;;;;
2021/04/18 05:57:02;;;;;;;29.5;26.3;;;;;;;5.62;100;98846.38;;;;
2021/04/18 06:07:00;;;;;;;33.4;25.2;;;;;;;5.85;100;98859.98;;;;
2021/04/18 06:16:59;;;;;;;36.4;28.9;;;;;;;6.23;100;98865.81;;;;
2021/04/18 06:26:57;;;;;;;26.8;22.8;;;;;;;6.35;100;98869;;;;
2021/04/18 06:36:56;;;;;;;29.8;24.6;;;;;;;6.68;100;98871;;;;
2021/04/18 06:46:54;;;;;;;30.3;24.7;;;;;;;6.77;100;98874.69;;;;
2021/04/18 06:56:53;;;;;;;32.2;26.2;;;;;;;6.84;100;98879.75;;;;
2021/04/18 07:06:52;;;;;;;30.1;23.1;;;;;;;7.16;100;98874.75;;;;
2021/04/18 07:16:51;;;;;;;29.1;23;;;;;;;7.31;100;98884.58;;;;
2021/04/18 07:26:49;;;;;;;29.9;23.1;;;;;;;6.82;100;98889.95;;;;
2021/04/18 07:36:48;;;;;;;26;20.1;;;;;;;6.94;100;98885.86;;;;
2021/04/18 07:46:47;;;;;;;28.8;20.4;;;;;;;6.98;100;98892.27;;;;
2021/04/18 07:56:45;;;;;;;23.8;21.2;;;;;;;7.06;100;98898.94;;;;
2021/04/18 08:06:45;;;;;;;33.2;23.8;;;;;;;7;100;98887.45;;;;
2021/04/18 08:16:43;;;;;;;24.5;20.8;;;;;;;7.86;100;98880.64;;;;
2021/04/18 08:26:42;;;;;;;30.1;22.3;;;;;;;7.99;100;98885.34;;;;
2021/04/18 08:36:41;;;;;;;31.6;20.2;;;;;;;8.48;100;98882.45;;;;
2021/04/18 08:46:40;;;;;;;23.6;17.7;;;;;;;8.91;100;98885.96;;;;
2021/04/18 08:56:49;;;;;;;19.6;16.4;;;;;;;9.64;100;98866.59;;;;
2021/04/18 09:06:38;;;;;;;18.9;16.9;;;;;;;9.33;100;98860.9;;;;
2021/04/18 09:16:37;;;;;;;15.6;13;;;;;;;9.7;93.68262;98868.09;;;;
2021/04/18 09:26:36;;;;;;;18.9;13.3;;;;;;;10.24;95.12207;98854.77;;;;
2021/04/18 09:36:35;;;;;;;14;11.4;;;;;;;9.92;95.78125;98841.35;;;;
2021/04/18 09:46:43;;;;;;;13.8;11;;;;;;;10.18;94.5166;98845.19;;;;
2021/04/18 09:56:34;;;;;;;16.2;14.5;;;;;;;10.34;93.60742;98843.82;;;;
2021/04/18 10:06:47;;;;;;;22.4;17.7;;;;;;;10.31;88.875;98843.63;;;;
2021/04/18 10:16:42;;;;;;;13.7;10.5;;;;;;;11.35;85.55859;98846.23;;;;
2021/04/18 10:26:34;;;;;;;19.7;16.7;;;;;;;11.22;87.39258;98839.77;;;;
2021/04/18 10:36:31;;;;;;;23.7;13.7;;;;;;;10.77;87.34668;98836.18;;;;
2021/04/18 10:46:30;;;;;;;13.6;12.1;;;;;;;10.83;86.88672;98836.89;;;;
2021/04/18 10:56:30;;;;;;;17.7;14.8;;;;;;;10.97;87.11816;98833.03;;;;
2021/04/18 11:06:28;;;;;;;21.2;15.5;;;;;;;10.71;88.38281;98834.7;;;;
2021/04/18 11:16:27;;;;;;;16.6;13.8;;;;;;;10.87;85.55371;98832.46;;;;
2021/04/18 11:26:27;;;;;;;31.7;13.1;;;;;;;10.92;84.5625;98835.86;;;;
2021/04/18 11:36:26;;;;;;;17.9;13.7;;;;;;;10.66;86.51563;98836.69;;;;
2021/04/18 11:46:26;;;;;;;22.3;15.7;;;;;;;10.27;88.97754;98837.23;;;;
2021/04/18 11:56:24;;;;;;;18.9;14.9;;;;;;;9.74;91.18164;98829.55;;;;
2021/04/18 12:06:23;;;;;;;17.2;14.9;;;;;;;9.99;92.01855;98833.69;;;;
2021/04/18 12:16:22;;;;;;;22.9;16.7;;;;;;;9.99;93.37793;98821.02;;;;
2021/04/18 12:26:21;;;;;;;20.3;17.1;;;;;;;10.12;91.85449;98832.89;;;;
2021/04/18 12:36:20;;;;;;;22.6;17.7;;;;;;;10.17;92.83984;98826.66;;;;
2021/04/18 12:46:20;;;;;;;19.3;17.2;;;;;;;9.96;89.95996;98824.28;;;;
2021/04/18 12:56:19;;;;;;;21.3;17.4;;;;;;;9.76;91.70313;98827.34;;;;
2021/04/18 13:06:17;;;;;;;24.3;18.5;;;;;;;9.78;91.49121;98821.68;;;;
2021/04/18 13:16:16;;;;;;;23.7;19.2;;;;;;;9.58;92.33594;98828.99;;;;
2021/04/18 13:26:15;;;;;;;20.9;17.2;;;;;;;9.76;91.25391;98808.5;;;;
2021/04/18 13:36:14;;;;;;;23.3;18.2;;;;;;;9.82;92.91309;98812.69;;;;
2021/04/18 13:46:13;;;;;;;18.2;15.5;;;;;;;9.81;91.4209;98816.5;;;;
2021/04/18 13:56:12;;;;;;;53.8;43.4;;;;;;;9.39;94.08789;98816.69;;;;
2021/04/18 14:06:11;;;;;;;24.3;20.1;;;;;;;9.31;95.80469;98817.34;;;;
2021/04/18 14:16:10;;;;;;;20.9;17.9;;;;;;;9.29;96.25977;98824.92;;;;
2021/04/18 14:26:09;;;;;;;20.1;17.9;;;;;;;9.08;96.20117;98822.55;;;;
2021/04/18 14:36:08;;;;;;;26.3;18.9;;;;;;;8.92;97.13965;98815.77;;;;
2021/04/18 14:46:07;;;;;;;22.9;18.9;;;;;;;8.99;96.84082;98823.47;;;;
2021/04/18 14:56:06;;;;;;;25.5;20;;;;;;;9.14;97.74609;98817.88;;;;
2021/04/18 15:06:05;;;;;;;25.1;19.8;;;;;;;9.02;98.66992;98826.38;;;;
2021/04/18 15:16:04;;;;;;;28.7;21.7;;;;;;;9.05;98.3291;98825.81;;;;
2021/04/18 15:26:02;;;;;;;22.4;18.4;;;;;;;8.72;100;98831.38;;;;
2021/04/18 15:36:01;;;;;;;21.5;16.1;;;;;;;8.9;99.24414;98827.91;;;;
2021/04/18 15:46:00;;;;;;;24.4;20.1;;;;;;;8.77;100;98828.63;;;;
2021/04/18 15:55:59;;;;;;;19.4;17.3;;;;;;;8.71;99.91602;98822.52;;;;
2021/04/18 16:05:58;;;;;;;24.5;18.4;;;;;;;8.81;100;98819.71;;;;
2021/04/18 16:15:56;;;;;;;27.8;17.5;;;;;;;8.69;100;98827.39;;;;
2021/04/18 16:25:55;;;;;;;20.2;17.6;;;;;;;8.5;100;98840;;;;
2021/04/18 16:35:54;;;;;;;20.9;16.3;;;;;;;8.54;100;98831.06;;;;
2021/04/18 16:45:54;;;;;;;19.1;15.4;;;;;;;8.57;100;98835.08;;;;
2021/04/18 16:55:52;;;;;;;21.7;16.8;;;;;;;8.61;100;98836.08;;;;
2021/04/18 17:05:51;;;;;;;40.6;28.4;;;;;;;8.72;99.41602;98856.36;;;;
2021/04/18 17:15:50;;;;;;;42.4;30.6;;;;;;;8.73;99.69629;98868.72;;;;
2021/04/18 17:25:49;;;;;;;35.8;22.6;;;;;;;8.65;100;98868.55;;;;
2021/04/18 17:35:47;;;;;;;22.3;15.5;;;;;;;8.53;100;98875.16;;;;
2021/04/18 17:45:46;;;;;;;21.9;17.8;;;;;;;8.5;100;98886.44;;;;
2021/04/18 17:55:45;;;;;;;22.6;19;;;;;;;8.36;100;98890.92;;;;
2021/04/18 18:05:44;;;;;;;28.6;19.9;;;;;;;8.19;100;98887.83;;;;
2021/04/18 18:15:43;;;;;;;24.4;21.2;;;;;;;8.11;100;98888.47;;;;
2021/04/18 18:25:41;;;;;;;28.6;22.4;;;;;;;7.91;100;98880.61;;;;
2021/04/18 18:35:40;;;;;;;23.8;20.5;;;;;;;7.85;100;98898.63;;;;
2021/04/18 18:45:39;;;;;;;32.8;23.5;;;;;;;7.82;100;98893.83;;;;
2021/04/18 18:55:37;;;;;;;40.1;33.6;;;;;;;7.7;100;98888.05;;;;
2021/04/18 19:05:37;;;;;;;51.8;40.6;;;;;;;7.65;100;98893.44;;;;
2021/04/18 19:15:36;;;;;;;41.6;34.6;;;;;;;7.6;100;98890.81;;;;
2021/04/18 19:25:36;;;;;;;40.2;33;;;;;;;7.47;100;98889.55;;;;
2021/04/18 19:35:32;;;;;;;47.5;36.2;;;;;;;7.44;100;98892.79;;;;
2021/04/18 19:45:31;;;;;;;39.9;31.9;;;;;;;7.25;100;98886.5;;;;
2021/04/18 19:55:29;;;;;;;47.9;39.2;;;;;;;7.12;100;98887.09;;;;
2021/04/18 20:05:28;;;;;;;46.9;37.1;;;;;;;6.96;100;98880.23;;;;
2021/04/18 20:15:27;;;;;;;48;40;;;;;;;6.86;100;98878.42;;;;
2021/04/18 20:25:25;;;;;;;46.5;40;;;;;;;6.96;100;98869.52;;;;
2021/04/18 20:35:23;;;;;;;65.1;46.1;;;;;;;6.88;100;98854.81;;;;
2021/04/18 20:45:22;;;;;;;46.3;38.2;;;;;;;6.88;100;98856.69;;;;
2021/04/18 20:55:20;;;;;;;41.1;36.8;;;;;;;6.83;100;98852.19;;;;
2021/04/18 21:05:19;;;;;;;45.1;34.5;;;;;;;6.77;100;98866.66;;;;
2021/04/18 21:15:17;;;;;;;48.3;35.4;;;;;;;6.72;100;98863.22;;;;
2021/04/18 21:25:16;;;;;;;49.7;40;;;;;;;6.62;100;98856.03;;;;
2021/04/18 21:35:15;;;;;;;46.9;41.8;;;;;;;6.43;100;98863.06;;;;
2021/04/18 21:45:13;;;;;;;47.9;42.8;;;;;;;6.2;100;98858.33;;;;
2021/04/18 21:55:11;;;;;;;60.2;46.4;;;;;;;5.86;100;98850.92;;;;
2021/04/18 22:05:10;;;;;;;49.6;42;;;;;;;5.59;100;98855.71;;;;
2021/04/18 22:15:08;;;;;;;63.4;45.8;;;;;;;5.26;100;98850.91;;;;
2021/04/18 22:25:07;;;;;;;57.6;48;;;;;;;5.07;100;98853.28;;;;
2021/04/18 22:35:05;;;;;;;57.8;44.2;;;;;;;4.84;100;98851.91;;;;
2021/04/18 22:45:03;;;;;;;72.1;56.8;;;;;;;4.64;100;98841.19;;;;
2021/04/18 22:55:01;;;;;;;76.2;54.5;;;;;;;4.64;100;98838.52;;;;
2021/04/18 23:04:59;;;;;;;81.1;58.6;;;;;;;4.54;100;98836.63;;;;
2021/04/18 23:14:58;;;;;;;81.3;62.8;;;;;;;4.49;100;98819.77;;;;
2021/04/18 23:24:56;;;;;;;83.4;59.8;;;;;;;4.47;100;98817.38;;;;
2021/04/18 23:34:54;;;;;;;82.3;59.4;;;;;;;4.43;100;98818.97;;;;
2021/04/18 23:44:52;;;;;;;84.5;59;;;;;;;4.38;100;98810.92;;;;
2021/04/18 23:54:50;;;;;;;66.7;49.5;;;;;;;4.31;100;98806.89;;;;
